Nearby METAR Reports

 

LBSF - Sofia (observato, Bulgaria
Distance from station: ЮИ 5km
Актуализирано: 11/12/2018 01:00
Преобладаваща облачност
Преобладаваща облачност
 Вятър от З
Вятър: З 13 km/h
Температура: 1°C
Wind Chill: -3°C
Точка на оросяване: -2°C
Влажност: 81%
Барометър: 1011 hPa
Clouds: Преобладаваща облачност
Visibility: 10 km
Cloud details: Преобладаваща облачност 1768 m
2018/12/10 23:00 LBSF 102300Z 28007KT 9999 BKN058 01/M02 Q1011 R99/29//95 NOSIG